Adams, Tennessee
Current Conditions -  °F | °C
As of 2:35 AM on Monday 26 Jan 2015 (Local Time) from KM91 Reporting Station
Overcast Overcast  
Wind Chill: 23°   Ceiling: 600
Heat Index: 34°   Visibility: 8mi
Dew Point: 34°   Wind: 17mph
Humidity: 100%   Direction: 320°NW
Pressure: 29.84"   Gusts: NA
Location:  36.58°N, 87.07°W
Report Text: KM91 260835Z AUTO 32015KT 8SM OVC006 01/01 A2984 RMK
Loading
Personal Weather Stations






























Interactive Weather Map New forecast layout! Learn more

10-Day Weather Forecast

Advertisements
Track Severe Weather on mobile